sensor_id;sensor_type;location;lat;lon;timestamp;temperature;humidity
14192;DHT22;7177;48.572;7.838;2022-07-21T00:01:52;19.20;99.90
14192;DHT22;7177;48.572;7.838;2022-07-21T00:04:18;19.20;99.90
14192;DHT22;7177;48.572;7.838;2022-07-21T00:06:45;19.20;99.90
14192;DHT22;7177;48.572;7.838;2022-07-21T00:09:11;19.20;99.90
14192;DHT22;7177;48.572;7.838;2022-07-21T00:11:37;19.20;99.90
14192;DHT22;7177;48.572;7.838;2022-07-21T00:14:04;19.20;99.90
14192;DHT22;7177;48.572;7.838;2022-07-21T00:16:30;19.10;99.90
14192;DHT22;7177;48.572;7.838;2022-07-21T00:18:55;19.10;99.90
14192;DHT22;7177;48.572;7.838;2022-07-21T00:21:21;19.00;99.90
14192;DHT22;7177;48.572;7.838;2022-07-21T00:23:46;19.00;99.90
14192;DHT22;7177;48.572;7.838;2022-07-21T00:26:12;19.00;99.90
14192;DHT22;7177;48.572;7.838;2022-07-21T00:31:04;18.90;99.90
14192;DHT22;7177;48.572;7.838;2022-07-21T00:33:30;18.90;99.90
14192;DHT22;7177;48.572;7.838;2022-07-21T00:35:55;18.90;99.90
14192;DHT22;7177;48.572;7.838;2022-07-21T00:38:21;18.90;99.90
14192;DHT22;7177;48.572;7.838;2022-07-21T00:40:46;19.00;99.90
14192;DHT22;7177;48.572;7.838;2022-07-21T00:43:12;18.90;99.90
14192;DHT22;7177;48.572;7.838;2022-07-21T00:45:37;18.90;99.90
14192;DHT22;7177;48.572;7.838;2022-07-21T00:48:03;18.90;99.90
14192;DHT22;7177;48.572;7.838;2022-07-21T00:50:29;18.90;99.90
14192;DHT22;7177;48.572;7.838;2022-07-21T00:52:56;19.00;99.90
14192;DHT22;7177;48.572;7.838;2022-07-21T00:55:22;18.90;99.90
14192;DHT22;7177;48.572;7.838;2022-07-21T00:57:48;19.00;99.90
14192;DHT22;7177;48.572;7.838;2022-07-21T01:00:21;18.90;99.90
14192;DHT22;7177;48.572;7.838;2022-07-21T01:02:47;18.90;99.90
14192;DHT22;7177;48.572;7.838;2022-07-21T01:05:13;18.90;99.90
14192;DHT22;7177;48.572;7.838;2022-07-21T01:07:48;18.90;99.90
14192;DHT22;7177;48.572;7.838;2022-07-21T01:10:15;18.90;99.90
14192;DHT22;7177;48.572;7.838;2022-07-21T01:12:42;18.90;99.90
14192;DHT22;7177;48.572;7.838;2022-07-21T01:15:09;18.80;99.90
14192;DHT22;7177;48.572;7.838;2022-07-21T01:17:35;18.80;99.90
14192;DHT22;7177;48.572;7.838;2022-07-21T01:20:06;18.90;99.90
14192;DHT22;7177;48.572;7.838;2022-07-21T01:22:33;18.90;99.90
14192;DHT22;7177;48.572;7.838;2022-07-21T01:24:59;18.90;99.90
14192;DHT22;7177;48.572;7.838;2022-07-21T01:27:26;18.80;99.90
14192;DHT22;7177;48.572;7.838;2022-07-21T01:29:52;18.90;99.90
14192;DHT22;7177;48.572;7.838;2022-07-21T01:32:18;18.80;99.90
14192;DHT22;7177;48.572;7.838;2022-07-21T01:34:43;18.90;99.90
14192;DHT22;7177;48.572;7.838;2022-07-21T01:37:09;18.90;99.90
14192;DHT22;7177;48.572;7.838;2022-07-21T01:39:34;19.00;99.90
14192;DHT22;7177;48.572;7.838;2022-07-21T01:42:19;19.00;99.90
14192;DHT22;7177;48.572;7.838;2022-07-21T01:47:10;18.90;99.90
14192;DHT22;7177;48.572;7.838;2022-07-21T01:49:36;18.90;99.90
14192;DHT22;7177;48.572;7.838;2022-07-21T01:52:01;18.90;99.90
14192;DHT22;7177;48.572;7.838;2022-07-21T01:56:53;18.90;99.90
14192;DHT22;7177;48.572;7.838;2022-07-21T01:59:19;18.80;99.90
14192;DHT22;7177;48.572;7.838;2022-07-21T02:01:45;18.80;99.90
14192;DHT22;7177;48.572;7.838;2022-07-21T02:04:11;18.80;99.90
14192;DHT22;7177;48.572;7.838;2022-07-21T02:06:36;18.90;99.90
14192;DHT22;7177;48.572;7.838;2022-07-21T02:09:02;18.90;99.90
14192;DHT22;7177;48.572;7.838;2022-07-21T02:11:27;18.90;99.90
14192;DHT22;7177;48.572;7.838;2022-07-21T02:13:53;19.00;99.90
14192;DHT22;7177;48.572;7.838;2022-07-21T02:16:19;19.00;99.90
14192;DHT22;7177;48.572;7.838;2022-07-21T02:18:44;19.00;99.90
14192;DHT22;7177;48.572;7.838;2022-07-21T02:21:10;19.00;99.90
14192;DHT22;7177;48.572;7.838;2022-07-21T02:23:35;19.00;99.90
14192;DHT22;7177;48.572;7.838;2022-07-21T02:26:02;19.00;99.90
14192;DHT22;7177;48.572;7.838;2022-07-21T02:28:28;19.10;99.90
14192;DHT22;7177;48.572;7.838;2022-07-21T02:30:54;19.10;99.90
14192;DHT22;7177;48.572;7.838;2022-07-21T02:33:20;19.10;99.90
14192;DHT22;7177;48.572;7.838;2022-07-21T02:35:45;19.10;99.90
14192;DHT22;7177;48.572;7.838;2022-07-21T02:38:11;19.10;99.90
14192;DHT22;7177;48.572;7.838;2022-07-21T02:40:37;19.00;99.90
14192;DHT22;7177;48.572;7.838;2022-07-21T02:43:03;19.10;99.90
14192;DHT22;7177;48.572;7.838;2022-07-21T02:45:30;19.10;99.90
14192;DHT22;7177;48.572;7.838;2022-07-21T02:48:05;19.10;99.90
14192;DHT22;7177;48.572;7.838;2022-07-21T02:50:32;19.10;99.90
14192;DHT22;7177;48.572;7.838;2022-07-21T02:53:00;19.20;99.90
14192;DHT22;7177;48.572;7.838;2022-07-21T02:55:27;19.20;99.90
14192;DHT22;7177;48.572;7.838;2022-07-21T02:58:03;19.30;99.90
14192;DHT22;7177;48.572;7.838;2022-07-21T03:00:29;19.30;99.90
14192;DHT22;7177;48.572;7.838;2022-07-21T03:02:54;19.40;99.90
14192;DHT22;7177;48.572;7.838;2022-07-21T03:05:20;19.50;99.90
14192;DHT22;7177;48.572;7.838;2022-07-21T03:07:46;19.60;99.90
14192;DHT22;7177;48.572;7.838;2022-07-21T03:10:11;19.70;99.90
14192;DHT22;7177;48.572;7.838;2022-07-21T03:12:37;19.80;99.90
14192;DHT22;7177;48.572;7.838;2022-07-21T03:15:02;19.90;99.90
14192;DHT22;7177;48.572;7.838;2022-07-21T03:17:28;19.80;99.90
14192;DHT22;7177;48.572;7.838;2022-07-21T03:19:53;19.60;99.90
14192;DHT22;7177;48.572;7.838;2022-07-21T03:22:19;19.50;99.90
14192;DHT22;7177;48.572;7.838;2022-07-21T03:24:44;19.40;99.90
14192;DHT22;7177;48.572;7.838;2022-07-21T03:27:10;19.30;99.90
14192;DHT22;7177;48.572;7.838;2022-07-21T03:29:35;19.30;99.90
14192;DHT22;7177;48.572;7.838;2022-07-21T03:32:01;19.20;99.90
14192;DHT22;7177;48.572;7.838;2022-07-21T03:34:27;19.20;99.90
14192;DHT22;7177;48.572;7.838;2022-07-21T03:36:52;19.10;99.90
14192;DHT22;7177;48.572;7.838;2022-07-21T03:39:18;19.10;99.90
14192;DHT22;7177;48.572;7.838;2022-07-21T03:41:43;19.10;99.90
14192;DHT22;7177;48.572;7.838;2022-07-21T03:44:09;19.10;99.90
14192;DHT22;7177;48.572;7.838;2022-07-21T03:46:34;19.10;99.90
14192;DHT22;7177;48.572;7.838;2022-07-21T03:49:00;19.10;99.90
14192;DHT22;7177;48.572;7.838;2022-07-21T03:51:25;19.10;99.90
14192;DHT22;7177;48.572;7.838;2022-07-21T03:53:51;19.00;99.90
14192;DHT22;7177;48.572;7.838;2022-07-21T03:56:16;19.00;99.90
14192;DHT22;7177;48.572;7.838;2022-07-21T03:58:42;19.00;99.90
14192;DHT22;7177;48.572;7.838;2022-07-21T04:01:07;19.00;99.90
14192;DHT22;7177;48.572;7.838;2022-07-21T04:03:32;19.00;99.90
14192;DHT22;7177;48.572;7.838;2022-07-21T04:06:00;19.00;99.90
14192;DHT22;7177;48.572;7.838;2022-07-21T04:08:26;19.00;99.90
14192;DHT22;7177;48.572;7.838;2022-07-21T04:10:52;19.00;99.90
14192;DHT22;7177;48.572;7.838;2022-07-21T04:13:17;19.00;99.90
14192;DHT22;7177;48.572;7.838;2022-07-21T04:15:43;19.00;99.90
14192;DHT22;7177;48.572;7.838;2022-07-21T04:18:09;18.90;99.90
14192;DHT22;7177;48.572;7.838;2022-07-21T04:20:34;19.00;99.90
14192;DHT22;7177;48.572;7.838;2022-07-21T04:23:00;19.00;99.90
14192;DHT22;7177;48.572;7.838;2022-07-21T04:25:26;19.10;99.90
14192;DHT22;7177;48.572;7.838;2022-07-21T04:27:52;19.20;99.90
14192;DHT22;7177;48.572;7.838;2022-07-21T04:30:22;19.30;99.90
14192;DHT22;7177;48.572;7.838;2022-07-21T04:32:48;19.30;99.90
14192;DHT22;7177;48.572;7.838;2022-07-21T04:35:14;19.30;99.90
14192;DHT22;7177;48.572;7.838;2022-07-21T04:37:40;19.30;99.90
14192;DHT22;7177;48.572;7.838;2022-07-21T04:40:07;19.30;99.90
14192;DHT22;7177;48.572;7.838;2022-07-21T04:42:35;19.40;99.90
14192;DHT22;7177;48.572;7.838;2022-07-21T04:45:00;19.40;99.90
14192;DHT22;7177;48.572;7.838;2022-07-21T04:47:26;19.40;99.90
14192;DHT22;7177;48.572;7.838;2022-07-21T04:49:51;19.40;99.90
14192;DHT22;7177;48.572;7.838;2022-07-21T04:52:17;19.50;99.90
14192;DHT22;7177;48.572;7.838;2022-07-21T04:54:42;19.60;99.90
14192;DHT22;7177;48.572;7.838;2022-07-21T04:57:08;19.60;99.90
14192;DHT22;7177;48.572;7.838;2022-07-21T04:59:35;19.60;99.90
14192;DHT22;7177;48.572;7.838;2022-07-21T05:02:02;19.70;99.90
14192;DHT22;7177;48.572;7.838;2022-07-21T05:04:28;19.90;99.90
14192;DHT22;7177;48.572;7.838;2022-07-21T05:06:53;20.00;99.90
14192;DHT22;7177;48.572;7.838;2022-07-21T05:09:19;20.00;99.90
14192;DHT22;7177;48.572;7.838;2022-07-21T05:11:45;20.00;99.90
14192;DHT22;7177;48.572;7.838;2022-07-21T05:14:10;19.90;99.90
14192;DHT22;7177;48.572;7.838;2022-07-21T05:16:36;19.90;99.90
14192;DHT22;7177;48.572;7.838;2022-07-21T05:19:02;19.90;99.90
14192;DHT22;7177;48.572;7.838;2022-07-21T05:21:27;20.00;99.90
14192;DHT22;7177;48.572;7.838;2022-07-21T05:23:53;20.00;99.90
14192;DHT22;7177;48.572;7.838;2022-07-21T05:26:18;20.10;99.90
14192;DHT22;7177;48.572;7.838;2022-07-21T05:28:44;20.10;99.90
14192;DHT22;7177;48.572;7.838;2022-07-21T05:31:10;19.90;99.90
14192;DHT22;7177;48.572;7.838;2022-07-21T05:33:36;20.00;99.90
14192;DHT22;7177;48.572;7.838;2022-07-21T05:36:05;20.10;99.90
14192;DHT22;7177;48.572;7.838;2022-07-21T05:38:31;20.30;99.90
14192;DHT22;7177;48.572;7.838;2022-07-21T05:40:57;20.40;99.90
14192;DHT22;7177;48.572;7.838;2022-07-21T05:43:25;20.50;99.90
14192;DHT22;7177;48.572;7.838;2022-07-21T05:45:51;20.60;99.90
14192;DHT22;7177;48.572;7.838;2022-07-21T05:48:16;20.80;99.90
14192;DHT22;7177;48.572;7.838;2022-07-21T05:50:43;21.00;99.90
14192;DHT22;7177;48.572;7.838;2022-07-21T05:53:08;21.10;99.90
14192;DHT22;7177;48.572;7.838;2022-07-21T05:55:34;21.10;99.90
14192;DHT22;7177;48.572;7.838;2022-07-21T05:57:59;21.10;99.90
14192;DHT22;7177;48.572;7.838;2022-07-21T06:00:25;21.00;99.90
14192;DHT22;7177;48.572;7.838;2022-07-21T06:02:50;20.90;99.90
14192;DHT22;7177;48.572;7.838;2022-07-21T06:05:16;20.80;99.90
14192;DHT22;7177;48.572;7.838;2022-07-21T06:07:42;20.70;99.90
14192;DHT22;7177;48.572;7.838;2022-07-21T06:10:08;20.70;99.90
14192;DHT22;7177;48.572;7.838;2022-07-21T06:12:33;20.70;99.90
14192;DHT22;7177;48.572;7.838;2022-07-21T06:14:59;20.70;99.90
14192;DHT22;7177;48.572;7.838;2022-07-21T06:17:24;20.80;99.90
14192;DHT22;7177;48.572;7.838;2022-07-21T06:19:50;20.90;99.90
14192;DHT22;7177;48.572;7.838;2022-07-21T06:22:16;21.00;99.90
14192;DHT22;7177;48.572;7.838;2022-07-21T06:24:41;21.30;99.90
14192;DHT22;7177;48.572;7.838;2022-07-21T06:27:07;21.40;99.90
14192;DHT22;7177;48.572;7.838;2022-07-21T06:29:33;21.40;99.90
14192;DHT22;7177;48.572;7.838;2022-07-21T06:31:59;21.30;99.90
14192;DHT22;7177;48.572;7.838;2022-07-21T06:34:24;21.40;99.90
14192;DHT22;7177;48.572;7.838;2022-07-21T06:36:50;21.60;99.90
14192;DHT22;7177;48.572;7.838;2022-07-21T06:39:15;21.80;99.90
14192;DHT22;7177;48.572;7.838;2022-07-21T06:41:41;21.90;99.90
14192;DHT22;7177;48.572;7.838;2022-07-21T06:44:06;21.90;99.90
14192;DHT22;7177;48.572;7.838;2022-07-21T06:46:35;22.20;99.90
14192;DHT22;7177;48.572;7.838;2022-07-21T06:49:02;22.30;99.90
14192;DHT22;7177;48.572;7.838;2022-07-21T06:51:27;22.40;99.90
14192;DHT22;7177;48.572;7.838;2022-07-21T06:53:53;22.30;99.90
14192;DHT22;7177;48.572;7.838;2022-07-21T06:56:18;22.60;99.90
14192;DHT22;7177;48.572;7.838;2022-07-21T06:58:44;22.70;99.90
14192;DHT22;7177;48.572;7.838;2022-07-21T07:01:10;22.80;99.90
14192;DHT22;7177;48.572;7.838;2022-07-21T07:03:37;22.80;99.90
14192;DHT22;7177;48.572;7.838;2022-07-21T07:06:03;22.70;99.90
14192;DHT22;7177;48.572;7.838;2022-07-21T07:08:29;22.70;99.90
14192;DHT22;7177;48.572;7.838;2022-07-21T07:10:57;22.70;99.90
14192;DHT22;7177;48.572;7.838;2022-07-21T07:13:23;22.60;99.90
14192;DHT22;7177;48.572;7.838;2022-07-21T07:15:48;22.80;99.90
14192;DHT22;7177;48.572;7.838;2022-07-21T07:18:14;23.00;99.90
14192;DHT22;7177;48.572;7.838;2022-07-21T07:20:39;23.30;99.90
14192;DHT22;7177;48.572;7.838;2022-07-21T07:23:05;23.30;99.90
14192;DHT22;7177;48.572;7.838;2022-07-21T07:25:31;23.40;99.90
14192;DHT22;7177;48.572;7.838;2022-07-21T07:27:57;23.40;99.90
14192;DHT22;7177;48.572;7.838;2022-07-21T07:30:23;23.40;99.90
14192;DHT22;7177;48.572;7.838;2022-07-21T07:32:49;23.50;99.90
14192;DHT22;7177;48.572;7.838;2022-07-21T07:35:15;23.60;99.90
14192;DHT22;7177;48.572;7.838;2022-07-21T07:37:42;23.70;99.90
14192;DHT22;7177;48.572;7.838;2022-07-21T07:40:11;24.10;99.90
14192;DHT22;7177;48.572;7.838;2022-07-21T07:42:38;24.10;99.90
14192;DHT22;7177;48.572;7.838;2022-07-21T07:45:06;24.40;99.90
14192;DHT22;7177;48.572;7.838;2022-07-21T07:47:32;24.50;99.90
14192;DHT22;7177;48.572;7.838;2022-07-21T07:49:58;24.70;99.90
14192;DHT22;7177;48.572;7.838;2022-07-21T07:52:23;24.80;99.90
14192;DHT22;7177;48.572;7.838;2022-07-21T07:54:49;24.90;99.90
14192;DHT22;7177;48.572;7.838;2022-07-21T07:57:15;24.90;99.90
14192;DHT22;7177;48.572;7.838;2022-07-21T07:59:40;25.10;99.90
14192;DHT22;7177;48.572;7.838;2022-07-21T08:02:06;25.20;99.90
14192;DHT22;7177;48.572;7.838;2022-07-21T08:04:31;25.10;99.90
14192;DHT22;7177;48.572;7.838;2022-07-21T08:06:57;25.30;99.90
14192;DHT22;7177;48.572;7.838;2022-07-21T08:09:22;25.40;99.90
14192;DHT22;7177;48.572;7.838;2022-07-21T08:11:48;25.80;99.90
14192;DHT22;7177;48.572;7.838;2022-07-21T08:14:16;25.90;99.90
14192;DHT22;7177;48.572;7.838;2022-07-21T08:16:41;26.20;99.90
14192;DHT22;7177;48.572;7.838;2022-07-21T08:19:07;26.60;99.90
14192;DHT22;7177;48.572;7.838;2022-07-21T08:21:33;26.80;99.90
14192;DHT22;7177;48.572;7.838;2022-07-21T08:23:59;26.90;99.90
14192;DHT22;7177;48.572;7.838;2022-07-21T08:26:25;26.80;99.90
14192;DHT22;7177;48.572;7.838;2022-07-21T08:28:52;26.80;99.90
14192;DHT22;7177;48.572;7.838;2022-07-21T08:31:18;26.80;99.90
14192;DHT22;7177;48.572;7.838;2022-07-21T08:33:44;27.00;99.90
14192;DHT22;7177;48.572;7.838;2022-07-21T08:36:10;27.10;99.90
14192;DHT22;7177;48.572;7.838;2022-07-21T08:38:36;27.20;99.90
14192;DHT22;7177;48.572;7.838;2022-07-21T08:41:01;27.20;99.90
14192;DHT22;7177;48.572;7.838;2022-07-21T08:43:27;26.70;99.90
14192;DHT22;7177;48.572;7.838;2022-07-21T08:45:53;26.20;99.90
14192;DHT22;7177;48.572;7.838;2022-07-21T08:48:23;25.70;99.90
14192;DHT22;7177;48.572;7.838;2022-07-21T08:50:49;25.90;99.90
14192;DHT22;7177;48.572;7.838;2022-07-21T08:53:15;26.10;99.90
14192;DHT22;7177;48.572;7.838;2022-07-21T08:55:40;26.20;99.90
14192;DHT22;7177;48.572;7.838;2022-07-21T08:58:08;26.00;99.90
14192;DHT22;7177;48.572;7.838;2022-07-21T09:00:35;26.10;99.90
14192;DHT22;7177;48.572;7.838;2022-07-21T09:03:21;26.80;99.90
14192;DHT22;7177;48.572;7.838;2022-07-21T09:06:11;27.60;99.90
14192;DHT22;7177;48.572;7.838;2022-07-21T09:08:41;28.00;99.90
14192;DHT22;7177;48.572;7.838;2022-07-21T09:13:42;28.00;99.90
14192;DHT22;7177;48.572;7.838;2022-07-21T09:16:09;28.10;99.90
14192;DHT22;7177;48.572;7.838;2022-07-21T09:18:38;28.20;99.90
14192;DHT22;7177;48.572;7.838;2022-07-21T09:21:11;28.70;99.90
14192;DHT22;7177;48.572;7.838;2022-07-21T09:23:36;29.40;99.90
14192;DHT22;7177;48.572;7.838;2022-07-21T09:26:03;29.50;99.90
14192;DHT22;7177;48.572;7.838;2022-07-21T09:28:30;29.20;99.90
14192;DHT22;7177;48.572;7.838;2022-07-21T09:31:07;29.40;99.90
14192;DHT22;7177;48.572;7.838;2022-07-21T09:33:44;29.70;99.90
14192;DHT22;7177;48.572;7.838;2022-07-21T09:36:13;29.10;99.90
14192;DHT22;7177;48.572;7.838;2022-07-21T09:41:17;29.50;99.90
14192;DHT22;7177;48.572;7.838;2022-07-21T09:43:48;29.90;99.90
14192;DHT22;7177;48.572;7.838;2022-07-21T09:46:24;29.20;99.90
14192;DHT22;7177;48.572;7.838;2022-07-21T09:48:52;28.30;99.90
14192;DHT22;7177;48.572;7.838;2022-07-21T09:51:35;27.90;99.90
14192;DHT22;7177;48.572;7.838;2022-07-21T09:54:06;27.20;99.90
14192;DHT22;7177;48.572;7.838;2022-07-21T09:56:35;27.10;99.90
14192;DHT22;7177;48.572;7.838;2022-07-21T09:59:01;27.70;99.90
14192;DHT22;7177;48.572;7.838;2022-07-21T10:01:28;28.10;99.90
14192;DHT22;7177;48.572;7.838;2022-07-21T10:03:56;27.80;99.90
14192;DHT22;7177;48.572;7.838;2022-07-21T10:06:30;27.50;99.90
14192;DHT22;7177;48.572;7.838;2022-07-21T10:08:57;28.10;99.90
14192;DHT22;7177;48.572;7.838;2022-07-21T10:11:24;28.60;99.90
14192;DHT22;7177;48.572;7.838;2022-07-21T10:13:50;28.80;99.90
14192;DHT22;7177;48.572;7.838;2022-07-21T10:16:16;29.10;99.90
14192;DHT22;7177;48.572;7.838;2022-07-21T10:18:57;29.40;99.90
14192;DHT22;7177;48.572;7.838;2022-07-21T10:21:32;29.00;99.90
14192;DHT22;7177;48.572;7.838;2022-07-21T10:24:01;28.20;99.90
14192;DHT22;7177;48.572;7.838;2022-07-21T10:26:26;27.90;99.90
14192;DHT22;7177;48.572;7.838;2022-07-21T10:28:52;28.00;99.90
14192;DHT22;7177;48.572;7.838;2022-07-21T10:31:25;28.80;99.90
14192;DHT22;7177;48.572;7.838;2022-07-21T10:34:00;29.20;99.90
14192;DHT22;7177;48.572;7.838;2022-07-21T10:41:45;28.90;99.90
14192;DHT22;7177;48.572;7.838;2022-07-21T10:47:03;28.30;99.90
14192;DHT22;7177;48.572;7.838;2022-07-21T10:50:02;28.40;99.90
14192;DHT22;7177;48.572;7.838;2022-07-21T10:57:43;28.00;99.90
14192;DHT22;7177;48.572;7.838;2022-07-21T11:00:17;27.80;99.90
14192;DHT22;7177;48.572;7.838;2022-07-21T11:02:47;28.50;99.90
14192;DHT22;7177;48.572;7.838;2022-07-21T11:05:13;29.50;99.90
14192;DHT22;7177;48.572;7.838;2022-07-21T11:08:16;30.40;99.00
14192;DHT22;7177;48.572;7.838;2022-07-21T11:10:51;30.70;98.10
14192;DHT22;7177;48.572;7.838;2022-07-21T11:13:19;31.10;98.60
14192;DHT22;7177;48.572;7.838;2022-07-21T11:15:57;31.30;96.00
14192;DHT22;7177;48.572;7.838;2022-07-21T11:18:29;31.00;95.00
14192;DHT22;7177;48.572;7.838;2022-07-21T11:21:11;31.30;95.00
14192;DHT22;7177;48.572;7.838;2022-07-21T11:23:42;31.50;95.70
14192;DHT22;7177;48.572;7.838;2022-07-21T11:26:09;31.80;94.80
14192;DHT22;7177;48.572;7.838;2022-07-21T11:28:35;32.20;93.40
14192;DHT22;7177;48.572;7.838;2022-07-21T11:31:07;32.60;93.70
14192;DHT22;7177;48.572;7.838;2022-07-21T11:33:35;32.70;93.10
14192;DHT22;7177;48.572;7.838;2022-07-21T11:36:00;31.80;94.40
14192;DHT22;7177;48.572;7.838;2022-07-21T11:38:26;31.60;95.20
14192;DHT22;7177;48.572;7.838;2022-07-21T11:40:51;31.50;94.30
14192;DHT22;7177;48.572;7.838;2022-07-21T11:43:17;31.40;94.30
14192;DHT22;7177;48.572;7.838;2022-07-21T11:45:53;31.00;94.00
14192;DHT22;7177;48.572;7.838;2022-07-21T11:48:32;31.20;94.10
14192;DHT22;7177;48.572;7.838;2022-07-21T11:51:02;31.50;93.30
14192;DHT22;7177;48.572;7.838;2022-07-21T11:53:28;30.80;92.90
14192;DHT22;7177;48.572;7.838;2022-07-21T11:55:54;30.30;94.40
14192;DHT22;7177;48.572;7.838;2022-07-21T11:58:20;30.10;95.00
14192;DHT22;7177;48.572;7.838;2022-07-21T12:00:46;30.10;94.40
14192;DHT22;7177;48.572;7.838;2022-07-21T12:03:12;30.00;94.70
14192;DHT22;7177;48.572;7.838;2022-07-21T12:05:39;29.70;94.90
14192;DHT22;7177;48.572;7.838;2022-07-21T12:08:05;29.40;95.00
14192;DHT22;7177;48.572;7.838;2022-07-21T12:10:31;29.40;95.30
14192;DHT22;7177;48.572;7.838;2022-07-21T12:13:04;29.30;95.50
14192;DHT22;7177;48.572;7.838;2022-07-21T12:15:35;29.70;96.20
14192;DHT22;7177;48.572;7.838;2022-07-21T12:18:03;30.30;95.40
14192;DHT22;7177;48.572;7.838;2022-07-21T12:20:32;30.40;95.40
14192;DHT22;7177;48.572;7.838;2022-07-21T12:25:43;30.00;96.10
14192;DHT22;7177;48.572;7.838;2022-07-21T12:28:09;29.50;97.20
14192;DHT22;7177;48.572;7.838;2022-07-21T12:30:46;29.30;97.70
14192;DHT22;7177;48.572;7.838;2022-07-21T12:33:27;29.30;98.10
14192;DHT22;7177;48.572;7.838;2022-07-21T12:36:02;29.60;96.40
14192;DHT22;7177;48.572;7.838;2022-07-21T12:38:41;30.50;95.80
14192;DHT22;7177;48.572;7.838;2022-07-21T12:41:09;30.90;95.10
14192;DHT22;7177;48.572;7.838;2022-07-21T12:43:35;31.10;94.20
14192;DHT22;7177;48.572;7.838;2022-07-21T12:46:15;31.50;95.10
14192;DHT22;7177;48.572;7.838;2022-07-21T12:48:43;32.00;92.80
14192;DHT22;7177;48.572;7.838;2022-07-21T12:56:17;33.60;88.80
14192;DHT22;7177;48.572;7.838;2022-07-21T12:58:43;33.90;86.40
14192;DHT22;7177;48.572;7.838;2022-07-21T13:01:10;33.60;88.10
14192;DHT22;7177;48.572;7.838;2022-07-21T13:03:36;33.20;87.20
14192;DHT22;7177;48.572;7.838;2022-07-21T13:06:04;33.40;86.60
14192;DHT22;7177;48.572;7.838;2022-07-21T13:08:30;33.90;84.80
14192;DHT22;7177;48.572;7.838;2022-07-21T13:10:56;34.10;82.60
14192;DHT22;7177;48.572;7.838;2022-07-21T13:13:23;34.60;80.30
14192;DHT22;7177;48.572;7.838;2022-07-21T13:15:49;34.80;79.40
14192;DHT22;7177;48.572;7.838;2022-07-21T13:18:14;34.80;80.30
14192;DHT22;7177;48.572;7.838;2022-07-21T13:20:40;34.90;75.40
14192;DHT22;7177;48.572;7.838;2022-07-21T13:23:06;34.80;77.80
14192;DHT22;7177;48.572;7.838;2022-07-21T13:25:31;34.50;79.70
14192;DHT22;7177;48.572;7.838;2022-07-21T13:27:57;33.80;79.10
14192;DHT22;7177;48.572;7.838;2022-07-21T13:30:22;33.00;78.90
14192;DHT22;7177;48.572;7.838;2022-07-21T13:32:48;32.40;81.10
14192;DHT22;7177;48.572;7.838;2022-07-21T13:35:14;32.10;83.50
14192;DHT22;7177;48.572;7.838;2022-07-21T13:37:39;31.60;83.30
14192;DHT22;7177;48.572;7.838;2022-07-21T13:40:06;31.10;83.80
14192;DHT22;7177;48.572;7.838;2022-07-21T13:42:31;31.10;86.70
14192;DHT22;7177;48.572;7.838;2022-07-21T13:44:57;30.80;84.80
14192;DHT22;7177;48.572;7.838;2022-07-21T13:47:22;30.70;87.60
14192;DHT22;7177;48.572;7.838;2022-07-21T13:49:48;30.30;84.30
14192;DHT22;7177;48.572;7.838;2022-07-21T13:52:14;30.30;85.30
14192;DHT22;7177;48.572;7.838;2022-07-21T13:54:39;30.60;85.30
14192;DHT22;7177;48.572;7.838;2022-07-21T13:57:05;31.40;83.20
14192;DHT22;7177;48.572;7.838;2022-07-21T13:59:30;32.40;85.10
14192;DHT22;7177;48.572;7.838;2022-07-21T14:01:56;33.20;80.10
14192;DHT22;7177;48.572;7.838;2022-07-21T14:04:22;34.00;80.00
14192;DHT22;7177;48.572;7.838;2022-07-21T14:06:48;34.50;77.40
14192;DHT22;7177;48.572;7.838;2022-07-21T14:09:18;34.70;78.70
14192;DHT22;7177;48.572;7.838;2022-07-21T14:11:44;35.00;73.40
14192;DHT22;7177;48.572;7.838;2022-07-21T14:14:10;35.00;74.70
14192;DHT22;7177;48.572;7.838;2022-07-21T14:16:40;34.70;72.70
14192;DHT22;7177;48.572;7.838;2022-07-21T14:19:06;34.50;76.50
14192;DHT22;7177;48.572;7.838;2022-07-21T14:21:31;34.00;73.90
14192;DHT22;7177;48.572;7.838;2022-07-21T14:23:57;33.20;75.30
14192;DHT22;7177;48.572;7.838;2022-07-21T14:26:41;32.30;79.60
14192;DHT22;7177;48.572;7.838;2022-07-21T14:29:07;31.60;79.70
14192;DHT22;7177;48.572;7.838;2022-07-21T14:31:32;31.00;80.70
14192;DHT22;7177;48.572;7.838;2022-07-21T14:33:58;30.80;82.20
14192;DHT22;7177;48.572;7.838;2022-07-21T14:36:23;30.70;84.20
14192;DHT22;7177;48.572;7.838;2022-07-21T14:38:49;30.90;84.60
14192;DHT22;7177;48.572;7.838;2022-07-21T14:41:14;31.40;85.30
14192;DHT22;7177;48.572;7.838;2022-07-21T14:43:40;32.30;79.50
14192;DHT22;7177;48.572;7.838;2022-07-21T14:46:06;32.70;77.90
14192;DHT22;7177;48.572;7.838;2022-07-21T14:48:31;33.20;80.20
14192;DHT22;7177;48.572;7.838;2022-07-21T14:50:58;33.70;77.30
14192;DHT22;7177;48.572;7.838;2022-07-21T14:53:23;33.50;77.70
14192;DHT22;7177;48.572;7.838;2022-07-21T14:55:49;33.00;75.70
14192;DHT22;7177;48.572;7.838;2022-07-21T14:58:14;32.50;77.40
14192;DHT22;7177;48.572;7.838;2022-07-21T15:00:40;31.80;77.40
14192;DHT22;7177;48.572;7.838;2022-07-21T15:03:07;31.10;80.60
14192;DHT22;7177;48.572;7.838;2022-07-21T15:05:32;31.00;81.60
14192;DHT22;7177;48.572;7.838;2022-07-21T15:07:58;31.00;84.20
14192;DHT22;7177;48.572;7.838;2022-07-21T15:10:23;30.90;84.60
14192;DHT22;7177;48.572;7.838;2022-07-21T15:12:49;31.50;83.40
14192;DHT22;7177;48.572;7.838;2022-07-21T15:15:14;32.40;82.00
14192;DHT22;7177;48.572;7.838;2022-07-21T15:17:40;32.80;79.80
14192;DHT22;7177;48.572;7.838;2022-07-21T15:20:07;32.90;78.50
14192;DHT22;7177;48.572;7.838;2022-07-21T15:22:33;33.00;78.00
14192;DHT22;7177;48.572;7.838;2022-07-21T15:24:59;33.40;77.30
14192;DHT22;7177;48.572;7.838;2022-07-21T15:27:25;33.60;78.00
14192;DHT22;7177;48.572;7.838;2022-07-21T15:29:51;33.80;76.50
14192;DHT22;7177;48.572;7.838;2022-07-21T15:32:17;33.80;75.00
14192;DHT22;7177;48.572;7.838;2022-07-21T15:34:42;33.20;75.10
14192;DHT22;7177;48.572;7.838;2022-07-21T15:37:08;32.60;78.30
14192;DHT22;7177;48.572;7.838;2022-07-21T15:39:33;31.90;79.90
14192;DHT22;7177;48.572;7.838;2022-07-21T15:41:59;32.00;77.20
14192;DHT22;7177;48.572;7.838;2022-07-21T15:44:24;32.30;78.70
14192;DHT22;7177;48.572;7.838;2022-07-21T15:46:50;32.70;75.70
14192;DHT22;7177;48.572;7.838;2022-07-21T15:49:16;32.50;76.00
14192;DHT22;7177;48.572;7.838;2022-07-21T15:51:44;32.40;76.30
14192;DHT22;7177;48.572;7.838;2022-07-21T15:54:10;32.10;76.40
14192;DHT22;7177;48.572;7.838;2022-07-21T15:56:35;32.20;77.10
14192;DHT22;7177;48.572;7.838;2022-07-21T15:59:01;32.10;77.10
14192;DHT22;7177;48.572;7.838;2022-07-21T16:01:45;31.60;79.10
14192;DHT22;7177;48.572;7.838;2022-07-21T16:04:11;31.20;82.50
14192;DHT22;7177;48.572;7.838;2022-07-21T16:06:36;30.90;83.10
14192;DHT22;7177;48.572;7.838;2022-07-21T16:09:02;30.80;84.20
14192;DHT22;7177;48.572;7.838;2022-07-21T16:11:29;30.70;87.70
14192;DHT22;7177;48.572;7.838;2022-07-21T16:13:55;30.20;86.70
14192;DHT22;7177;48.572;7.838;2022-07-21T16:16:21;30.20;88.00
14192;DHT22;7177;48.572;7.838;2022-07-21T16:18:46;30.00;87.20